createdAt,value
2018-03-24T00:00:39.197Z,57.73
2018-03-24T00:01:39.208Z,57.81
2018-03-24T00:02:39.236Z,57.74
2018-03-24T00:03:39.214Z,57.71
2018-03-24T00:04:39.207Z,57.81
2018-03-24T00:05:39.208Z,57.72
2018-03-24T00:06:39.187Z,57.7
2018-03-24T00:07:39.226Z,57.79
2018-03-24T00:08:39.196Z,57.73
2018-03-24T00:09:39.206Z,57.7
2018-03-24T00:10:39.218Z,57.78
2018-03-24T00:11:39.199Z,57.73
2018-03-24T00:12:39.202Z,57.7
2018-03-24T00:13:39.202Z,57.77
2018-03-24T00:14:39.204Z,57.7
2018-03-24T00:15:39.220Z,57.68
2018-03-24T00:16:39.215Z,57.77
2018-03-24T00:17:39.202Z,57.68
2018-03-24T00:18:39.240Z,57.68
2018-03-24T00:19:39.195Z,57.74
2018-03-24T00:20:39.200Z,57.7
2018-03-24T00:21:39.210Z,57.67
2018-03-24T00:22:39.213Z,57.73
2018-03-24T00:23:39.198Z,57.67
2018-03-24T00:24:39.198Z,57.67
2018-03-24T00:25:39.197Z,57.74
2018-03-24T00:26:39.341Z,57.67
2018-03-24T00:27:39.198Z,57.66
2018-03-24T00:28:39.203Z,57.72
2018-03-24T00:29:39.225Z,57.67
2018-03-24T00:30:39.211Z,57.65
2018-03-24T00:31:39.184Z,57.72
2018-03-24T00:32:39.194Z,57.67
2018-03-24T00:33:39.215Z,57.66
2018-03-24T00:34:39.196Z,57.7
2018-03-24T00:35:39.220Z,57.65
2018-03-24T00:36:39.193Z,57.62
2018-03-24T00:37:39.211Z,57.7
2018-03-24T00:38:39.203Z,57.65
2018-03-24T00:39:39.205Z,57.65
2018-03-24T00:40:39.208Z,57.71
2018-03-24T00:41:39.184Z,57.67
2018-03-24T00:42:39.193Z,57.62
2018-03-24T00:43:39.199Z,57.71
2018-03-24T00:44:39.262Z,57.64
2018-03-24T00:45:39.189Z,57.61
2018-03-24T00:46:39.197Z,57.7
2018-03-24T00:47:39.204Z,57.65
2018-03-24T00:48:39.197Z,57.6
2018-03-24T00:49:39.214Z,57.68
2018-03-24T00:50:39.221Z,57.62
2018-03-24T00:51:39.186Z,57.59
2018-03-24T00:52:39.195Z,57.66
2018-03-24T00:53:39.219Z,57.6
2018-03-24T00:54:39.186Z,57.56
2018-03-24T00:55:39.195Z,57.65
2018-03-24T00:56:39.196Z,57.6
2018-03-24T00:57:39.197Z,57.59
2018-03-24T00:58:39.188Z,57.66
2018-03-24T00:59:39.191Z,57.62
2018-03-24T01:00:39.236Z,57.6
2018-03-24T01:01:39.230Z,57.66
2018-03-24T01:02:39.199Z,57.6
2018-03-24T01:03:39.234Z,57.58
2018-03-24T01:04:39.257Z,57.65
2018-03-24T01:05:39.465Z,57.6
2018-03-24T01:06:39.217Z,57.56
2018-03-24T01:07:39.207Z,57.65
2018-03-24T01:08:39.196Z,57.58
2018-03-24T01:09:39.198Z,57.55
2018-03-24T01:10:39.487Z,57.65
2018-03-24T01:11:39.247Z,57.56
2018-03-24T01:12:39.193Z,57.54
2018-03-24T01:13:39.202Z,57.62
2018-03-24T01:14:39.208Z,57.55
2018-03-24T01:15:39.217Z,57.53
2018-03-24T01:16:39.164Z,57.62
2018-03-24T01:17:39.215Z,57.58
2018-03-24T01:18:39.189Z,57.54
2018-03-24T01:19:39.168Z,57.62
2018-03-24T01:20:39.190Z,57.58
2018-03-24T01:21:39.199Z,57.56
2018-03-24T01:22:39.162Z,57.62
2018-03-24T01:23:39.188Z,57.55
2018-03-24T01:24:39.171Z,57.52
2018-03-24T01:25:39.196Z,57.6
2018-03-24T01:26:39.160Z,57.56
2018-03-24T01:27:39.175Z,57.54
2018-03-24T01:28:39.165Z,57.61
2018-03-24T01:29:39.185Z,57.54
2018-03-24T01:30:39.217Z,57.53
2018-03-24T01:31:39.208Z,57.6
2018-03-24T01:32:39.181Z,57.54
2018-03-24T01:33:39.182Z,57.54
2018-03-24T01:34:39.189Z,57.6
2018-03-24T01:35:39.175Z,57.54
2018-03-24T01:36:39.262Z,57.54
2018-03-24T01:37:39.214Z,57.6
2018-03-24T01:38:39.207Z,57.53
2018-03-24T01:39:39.191Z,57.53
2018-03-24T01:40:39.204Z,57.6
2018-03-24T01:41:39.165Z,57.52
2018-03-24T01:42:39.191Z,57.52
2018-03-24T01:43:39.199Z,57.59
2018-03-24T01:44:39.183Z,57.53
2018-03-24T01:45:39.162Z,57.51
2018-03-24T01:46:39.191Z,57.59
2018-03-24T01:47:39.222Z,57.52
2018-03-24T01:48:39.187Z,57.52
2018-03-24T01:49:39.172Z,57.6
2018-03-24T01:50:39.195Z,57.52
2018-03-24T01:51:39.183Z,57.52
2018-03-24T01:52:39.208Z,57.59
2018-03-24T01:53:39.175Z,57.53
2018-03-24T01:54:39.187Z,57.51
2018-03-24T01:55:39.181Z,57.59
2018-03-24T01:56:39.159Z,57.52
2018-03-24T01:57:39.182Z,57.49
2018-03-24T01:58:39.190Z,57.58
2018-03-24T01:59:39.174Z,57.53
2018-03-24T02:00:39.183Z,57.49
2018-03-24T02:01:39.220Z,57.59
2018-03-24T02:02:39.205Z,57.51
2018-03-24T02:03:39.173Z,57.49
2018-03-24T02:04:39.200Z,57.56
2018-03-24T02:05:39.166Z,57.53
2018-03-24T02:06:39.186Z,57.49
2018-03-24T02:07:39.199Z,57.58
2018-03-24T02:08:39.171Z,57.51
2018-03-24T02:09:39.173Z,57.46
2018-03-24T02:10:39.172Z,57.54
2018-03-24T02:11:39.161Z,57.47
2018-03-24T02:12:39.183Z,57.46
2018-03-24T02:13:39.179Z,57.54
2018-03-24T02:14:39.181Z,57.49
2018-03-24T02:15:39.198Z,57.47
2018-03-24T02:16:39.190Z,57.52
2018-03-24T02:17:39.211Z,57.47
2018-03-24T02:18:39.194Z,57.45
2018-03-24T02:19:39.179Z,57.54
2018-03-24T02:20:39.192Z,57.47
2018-03-24T02:21:39.190Z,57.46
2018-03-24T02:22:39.186Z,57.55
2018-03-24T02:23:39.173Z,57.49
2018-03-24T02:24:39.167Z,57.46
2018-03-24T02:25:39.180Z,57.53
2018-03-24T02:26:39.158Z,57.46
2018-03-24T02:27:39.284Z,57.45
2018-03-24T02:28:39.219Z,57.52
2018-03-24T02:29:39.181Z,57.46
2018-03-24T02:30:39.150Z,57.43
2018-03-24T02:31:39.165Z,57.53
2018-03-24T02:32:39.190Z,57.45
2018-03-24T02:33:39.163Z,57.45
2018-03-24T02:34:39.156Z,57.52
2018-03-24T02:35:39.168Z,57.46
2018-03-24T02:36:39.171Z,57.45
2018-03-24T02:37:39.178Z,57.52
2018-03-24T02:38:39.156Z,57.46
2018-03-24T02:39:39.178Z,57.43
2018-03-24T02:40:39.185Z,57.52
2018-03-24T02:41:39.189Z,57.46
2018-03-24T02:42:39.172Z,57.43
2018-03-24T02:43:39.172Z,57.52
2018-03-24T02:44:39.179Z,57.45
2018-03-24T02:45:39.219Z,57.42
2018-03-24T02:46:39.198Z,57.51
2018-03-24T02:47:39.161Z,57.43
2018-03-24T02:48:39.172Z,57.41
2018-03-24T02:49:39.167Z,57.49
2018-03-24T02:50:39.151Z,57.46
2018-03-24T02:51:39.174Z,57.4
2018-03-24T02:52:39.174Z,57.49
2018-03-24T02:53:39.175Z,57.45
2018-03-24T02:54:39.180Z,57.41
2018-03-24T02:55:39.178Z,57.48
2018-03-24T02:56:39.175Z,57.42
2018-03-24T02:57:39.180Z,57.41
2018-03-24T02:58:39.181Z,57.49
2018-03-24T02:59:39.165Z,57.4
2018-03-24T03:00:39.181Z,57.4
2018-03-24T03:01:39.156Z,57.47
2018-03-24T03:02:39.161Z,57.42
2018-03-24T03:03:39.170Z,57.39
2018-03-24T03:04:39.248Z,57.48
2018-03-24T03:05:39.173Z,57.41
2018-03-24T03:06:39.187Z,57.39
2018-03-24T03:07:39.166Z,57.47
2018-03-24T03:08:39.168Z,57.41
2018-03-24T03:09:39.172Z,57.41
2018-03-24T03:10:39.177Z,57.48
2018-03-24T03:11:39.179Z,57.4
2018-03-24T03:12:39.179Z,57.39
2018-03-24T03:13:39.169Z,57.46
2018-03-24T03:14:39.139Z,57.39
2018-03-24T03:15:39.154Z,57.37
2018-03-24T03:16:39.149Z,57.45
2018-03-24T03:17:39.167Z,57.36
2018-03-24T03:18:39.161Z,57.37
2018-03-24T03:19:39.156Z,57.46
2018-03-24T03:20:39.157Z,57.36
2018-03-24T03:21:39.453Z,57.36
2018-03-24T03:22:39.166Z,57.45
2018-03-24T03:23:39.149Z,57.39
2018-03-24T03:24:39.169Z,57.36
2018-03-24T03:25:39.164Z,57.45
2018-03-24T03:26:39.175Z,57.37
2018-03-24T03:27:39.171Z,57.36
2018-03-24T03:28:39.153Z,57.45
2018-03-24T03:29:39.138Z,57.37
2018-03-24T03:30:39.156Z,57.37
2018-03-24T03:31:39.153Z,57.45
2018-03-24T03:32:39.144Z,57.39
2018-03-24T03:33:39.149Z,57.35
2018-03-24T03:34:39.150Z,57.45
2018-03-24T03:35:39.151Z,57.37
2018-03-24T03:36:39.140Z,57.35
2018-03-24T03:37:39.130Z,57.43
2018-03-24T03:38:39.133Z,57.37
2018-03-24T03:39:39.224Z,57.34
2018-03-24T03:40:39.136Z,57.42
2018-03-24T03:41:39.159Z,57.35
2018-03-24T03:42:39.174Z,57.33
2018-03-24T03:43:39.149Z,57.41
2018-03-24T03:44:39.175Z,57.36
2018-03-24T03:45:39.142Z,57.34
2018-03-24T03:46:39.146Z,57.43
2018-03-24T03:47:39.131Z,57.35
2018-03-24T03:48:39.133Z,57.34
2018-03-24T03:49:39.136Z,57.41
2018-03-24T03:50:39.108Z,57.35
2018-03-24T03:51:39.389Z,57.33
2018-03-24T03:52:39.116Z,57.42
2018-03-24T03:53:39.141Z,57.33
2018-03-24T03:54:39.126Z,57.33
2018-03-24T03:55:39.157Z,57.41
2018-03-24T03:56:39.177Z,57.34
2018-03-24T03:57:39.146Z,57.33
2018-03-24T03:58:39.178Z,57.4
2018-03-24T03:59:39.123Z,57.33
2018-03-24T04:00:39.135Z,57.32
2018-03-24T04:01:39.109Z,57.4
2018-03-24T04:02:39.114Z,57.33
2018-03-24T04:03:39.134Z,57.33
2018-03-24T04:04:39.128Z,57.39
2018-03-24T04:05:39.118Z,57.34
2018-03-24T04:06:39.175Z,57.33
2018-03-24T04:07:39.132Z,57.39
2018-03-24T04:08:39.157Z,57.32
2018-03-24T04:09:39.117Z,57.29
2018-03-24T04:10:39.130Z,57.39
2018-03-24T04:11:39.162Z,57.32
2018-03-24T04:12:39.131Z,57.33
2018-03-24T04:13:39.148Z,57.4
2018-03-24T04:14:39.146Z,57.32
2018-03-24T04:15:39.144Z,57.29
2018-03-24T04:16:39.137Z,57.36
2018-03-24T04:17:39.125Z,57.29
2018-03-24T04:18:39.133Z,57.29
2018-03-24T04:19:39.136Z,57.39
2018-03-24T04:20:39.159Z,57.3
2018-03-24T04:21:39.125Z,57.29
2018-03-24T04:22:39.144Z,57.35
2018-03-24T04:23:39.117Z,57.32
2018-03-24T04:24:39.112Z,57.28
2018-03-24T04:25:39.125Z,57.36
2018-03-24T04:26:39.147Z,57.3
2018-03-24T04:27:39.129Z,57.28
2018-03-24T04:28:39.218Z,57.34
2018-03-24T04:29:39.113Z,57.3
2018-03-24T04:30:39.136Z,57.27
2018-03-24T04:31:39.111Z,57.35
2018-03-24T04:32:39.148Z,57.29
2018-03-24T04:33:39.136Z,57.28
2018-03-24T04:34:39.128Z,57.35
2018-03-24T04:35:39.126Z,57.28
2018-03-24T04:36:39.140Z,57.28
2018-03-24T04:37:39.154Z,57.34
2018-03-24T04:38:39.125Z,57.28
2018-03-24T04:39:39.149Z,57.26
2018-03-24T04:40:39.477Z,57.34
2018-03-24T04:41:39.118Z,57.27
2018-03-24T04:42:39.140Z,57.26
2018-03-24T04:43:39.143Z,57.34
2018-03-24T04:44:39.119Z,57.27
2018-03-24T04:45:39.165Z,57.26
2018-03-24T04:46:39.171Z,57.33
2018-03-24T04:47:39.115Z,57.27
2018-03-24T04:48:39.113Z,57.26
2018-03-24T04:49:39.115Z,57.34
2018-03-24T04:50:39.399Z,57.27
2018-03-24T04:51:39.107Z,57.25
2018-03-24T04:52:39.143Z,57.32
2018-03-24T04:53:39.127Z,57.27
2018-03-24T04:54:39.123Z,57.24
2018-03-24T04:55:39.134Z,57.32
2018-03-24T04:56:39.124Z,57.26
2018-03-24T04:57:39.110Z,57.22
2018-03-24T04:58:39.105Z,57.32
2018-03-24T04:59:39.138Z,57.26
2018-03-24T05:00:39.103Z,57.24
2018-03-24T05:01:39.133Z,57.33
2018-03-24T05:02:39.101Z,57.27
2018-03-24T05:03:39.109Z,57.27
2018-03-24T05:04:39.127Z,57.36
2018-03-24T05:05:39.131Z,57.28
2018-03-24T05:06:39.119Z,57.29
2018-03-24T05:07:39.140Z,57.39
2018-03-24T05:08:39.116Z,57.32
2018-03-24T05:09:39.241Z,57.32
2018-03-24T05:10:39.128Z,57.41
2018-03-24T05:11:39.102Z,57.35
2018-03-24T05:12:39.138Z,57.35
2018-03-24T05:13:39.140Z,57.45
2018-03-24T05:14:39.132Z,57.39
2018-03-24T05:15:39.126Z,57.39
2018-03-24T05:16:39.138Z,57.46
2018-03-24T05:17:39.099Z,57.39
2018-03-24T05:18:39.127Z,57.4
2018-03-24T05:19:39.395Z,57.49
2018-03-24T05:20:39.112Z,57.43
2018-03-24T05:21:39.121Z,57.45
2018-03-24T05:22:39.124Z,57.52
2018-03-24T05:23:39.166Z,57.47
2018-03-24T05:24:39.140Z,57.48
2018-03-24T05:25:39.138Z,57.56
2018-03-24T05:26:39.118Z,57.51
2018-03-24T05:27:39.106Z,57.52
2018-03-24T05:28:39.104Z,57.6
2018-03-24T05:29:39.097Z,57.53
2018-03-24T05:30:39.140Z,57.53
2018-03-24T05:31:39.090Z,57.61
2018-03-24T05:32:39.092Z,57.56
2018-03-24T05:33:39.125Z,57.58
2018-03-24T05:34:39.122Z,57.65
2018-03-24T05:35:39.108Z,57.6
2018-03-24T05:36:39.122Z,57.61
2018-03-24T05:37:39.099Z,57.67
2018-03-24T05:38:39.111Z,57.64
2018-03-24T05:39:39.125Z,57.64
2018-03-24T05:40:39.105Z,57.71
2018-03-24T05:41:39.234Z,57.66
2018-03-24T05:42:39.119Z,57.66
2018-03-24T05:43:39.165Z,57.73
2018-03-24T05:44:39.096Z,57.7
2018-03-24T05:45:39.120Z,57.7
2018-03-24T05:46:39.135Z,57.77
2018-03-24T05:47:39.093Z,57.73
2018-03-24T05:48:39.342Z,57.73
2018-03-24T05:49:39.123Z,57.8
2018-03-24T05:50:39.121Z,57.74
2018-03-24T05:51:39.112Z,57.76
2018-03-24T05:52:39.123Z,57.83
2018-03-24T05:53:39.094Z,57.78
2018-03-24T05:54:39.117Z,57.77
2018-03-24T05:55:39.111Z,57.85
2018-03-24T05:56:39.084Z,57.79
2018-03-24T05:57:39.429Z,57.8
2018-03-24T05:58:39.116Z,57.86
2018-03-24T05:59:39.093Z,57.82
2018-03-24T06:00:39.127Z,57.82
2018-03-24T06:01:39.110Z,57.9
2018-03-24T06:02:39.116Z,57.84
2018-03-24T06:03:39.098Z,57.85
2018-03-24T06:04:39.108Z,57.92
2018-03-24T06:05:39.091Z,57.87
2018-03-24T06:06:39.121Z,57.88
2018-03-24T06:07:39.102Z,57.95
2018-03-24T06:08:39.262Z,57.89
2018-03-24T06:09:39.122Z,57.9
2018-03-24T06:10:39.219Z,57.96
2018-03-24T06:11:39.101Z,57.91
2018-03-24T06:12:39.117Z,57.91
2018-03-24T06:13:39.140Z,57.98
2018-03-24T06:14:39.093Z,57.93
2018-03-24T06:15:39.161Z,57.93
2018-03-24T06:16:39.106Z,58.01
2018-03-24T06:17:39.088Z,57.95
2018-03-24T06:18:39.107Z,57.95
2018-03-24T06:19:39.090Z,58.01
2018-03-24T06:20:39.092Z,57.96
2018-03-24T06:21:39.074Z,57.96
2018-03-24T06:22:39.087Z,58.03
2018-03-24T06:23:39.087Z,57.98
2018-03-24T06:24:39.107Z,57.99
2018-03-24T06:25:39.100Z,58.05
2018-03-24T06:26:39.096Z,57.99
2018-03-24T06:27:39.095Z,58.01
2018-03-24T06:28:39.079Z,58.08
2018-03-24T06:29:39.191Z,58.03
2018-03-24T06:30:39.103Z,58.03
2018-03-24T06:31:39.098Z,58.09
2018-03-24T06:32:39.095Z,58.04
2018-03-24T06:33:39.095Z,58.04
2018-03-24T06:34:39.112Z,58.11
2018-03-24T06:35:39.072Z,58.05
2018-03-24T06:36:39.111Z,58.06
2018-03-24T06:37:39.155Z,58.13
2018-03-24T06:38:39.088Z,58.08
2018-03-24T06:39:39.145Z,58.08
2018-03-24T06:40:39.142Z,58.14
2018-03-24T06:41:39.089Z,58.09
2018-03-24T06:42:39.078Z,58.09
2018-03-24T06:43:39.078Z,58.15
2018-03-24T06:44:39.083Z,58.1
2018-03-24T06:45:39.063Z,58.09
2018-03-24T06:46:39.117Z,58.16
2018-03-24T06:47:39.064Z,58.1
2018-03-24T06:48:39.066Z,58.1
2018-03-24T06:49:39.083Z,58.19
2018-03-24T06:50:39.120Z,58.11
2018-03-24T06:51:39.076Z,58.14
2018-03-24T06:52:39.077Z,58.19
2018-03-24T06:53:39.066Z,58.14
2018-03-24T06:54:39.078Z,58.14
2018-03-24T06:55:39.082Z,58.21
2018-03-24T06:56:39.102Z,58.15
2018-03-24T06:57:39.079Z,58.15
2018-03-24T06:58:39.105Z,58.22
2018-03-24T06:59:39.094Z,58.16
2018-03-24T07:00:39.249Z,58.18
2018-03-24T07:01:39.073Z,58.23
2018-03-24T07:02:39.062Z,58.17
2018-03-24T07:03:39.073Z,58.18
2018-03-24T07:04:39.055Z,58.25
2018-03-24T07:05:39.117Z,58.2
2018-03-24T07:06:39.076Z,58.2
2018-03-24T07:07:39.054Z,58.27
2018-03-24T07:08:39.093Z,58.21
2018-03-24T07:09:39.091Z,58.21
2018-03-24T07:10:39.062Z,58.27
2018-03-24T07:11:39.081Z,58.22
2018-03-24T07:12:39.066Z,58.22
2018-03-24T07:13:39.058Z,58.27
2018-03-24T07:14:39.051Z,58.22
2018-03-24T07:15:39.059Z,58.22
2018-03-24T07:16:39.069Z,58.29
2018-03-24T07:17:39.061Z,58.22
2018-03-24T07:18:39.063Z,58.21
2018-03-24T07:19:38.910Z,58.28
2018-03-24T07:20:39.055Z,58.22
2018-03-24T07:21:39.060Z,58.22
2018-03-24T07:22:39.069Z,58.28
2018-03-24T07:23:39.084Z,58.21
2018-03-24T07:24:39.058Z,58.21
2018-03-24T07:25:39.065Z,58.28
2018-03-24T07:26:39.059Z,58.21
2018-03-24T07:27:39.084Z,58.22
2018-03-24T07:28:39.068Z,58.28
2018-03-24T07:29:39.054Z,58.2
2018-03-24T07:30:39.066Z,58.2
2018-03-24T07:31:39.073Z,58.27
2018-03-24T07:32:39.054Z,58.22
2018-03-24T07:33:39.049Z,58.22
2018-03-24T07:34:39.052Z,58.28
2018-03-24T07:35:39.058Z,58.21
2018-03-24T07:36:39.048Z,58.2
2018-03-24T07:37:39.042Z,58.28
2018-03-24T07:38:39.056Z,58.22
2018-03-24T07:39:39.079Z,58.21
2018-03-24T07:40:39.147Z,58.29
2018-03-24T07:41:39.067Z,58.22
2018-03-24T07:42:39.076Z,58.23
2018-03-24T07:43:39.082Z,58.29
2018-03-24T07:44:39.050Z,58.22
2018-03-24T07:45:39.076Z,58.23
2018-03-24T07:46:39.075Z,58.32
2018-03-24T07:47:39.168Z,58.24
2018-03-24T07:48:39.084Z,58.23
2018-03-24T07:49:39.076Z,58.32
2018-03-24T07:50:39.057Z,58.26
2018-03-24T07:51:39.060Z,58.25
2018-03-24T07:52:39.056Z,58.33
2018-03-24T07:53:39.048Z,58.26
2018-03-24T07:54:39.073Z,58.27
2018-03-24T07:55:39.056Z,58.33
2018-03-24T07:56:39.049Z,58.27
2018-03-24T07:57:39.031Z,58.26
2018-03-24T07:58:39.071Z,58.33
2018-03-24T07:59:39.041Z,58.28
2018-03-24T08:00:39.059Z,58.27
2018-03-24T08:01:39.077Z,58.34
2018-03-24T08:02:39.060Z,58.28
2018-03-24T08:03:39.057Z,58.28
2018-03-24T08:04:39.073Z,58.35
2018-03-24T08:05:39.045Z,58.29
2018-03-24T08:06:39.061Z,58.29
2018-03-24T08:07:39.056Z,58.37
2018-03-24T08:08:39.039Z,58.3
2018-03-24T08:09:39.183Z,58.29
2018-03-24T08:10:39.088Z,58.38
2018-03-24T08:11:39.064Z,58.32
2018-03-24T08:12:39.115Z,58.33
2018-03-24T08:13:39.055Z,58.39
2018-03-24T08:14:39.040Z,58.33
2018-03-24T08:15:39.051Z,58.34
2018-03-24T08:16:39.082Z,58.4
2018-03-24T08:17:39.035Z,58.35
2018-03-24T08:18:39.059Z,58.34
2018-03-24T08:19:39.036Z,58.41
2018-03-24T08:20:39.067Z,58.34
2018-03-24T08:21:39.073Z,58.36
2018-03-24T08:22:39.059Z,58.41
2018-03-24T08:23:39.054Z,58.35
2018-03-24T08:24:39.054Z,58.37
2018-03-24T08:25:39.075Z,58.43
2018-03-24T08:26:39.103Z,58.37
2018-03-24T08:27:39.033Z,58.38
2018-03-24T08:28:39.048Z,58.45
2018-03-24T08:29:39.032Z,58.38
2018-03-24T08:30:39.152Z,58.39
2018-03-24T08:31:39.081Z,58.45
2018-03-24T08:32:39.035Z,58.39
2018-03-24T08:33:39.029Z,58.39
2018-03-24T08:34:39.032Z,58.45
2018-03-24T08:35:39.033Z,58.39
2018-03-24T08:36:39.044Z,58.4
2018-03-24T08:37:39.038Z,58.46
2018-03-24T08:38:39.053Z,58.38
2018-03-24T08:39:39.033Z,58.38
2018-03-24T08:40:39.040Z,58.45
2018-03-24T08:41:39.041Z,58.39
2018-03-24T08:42:39.031Z,58.4
2018-03-24T08:43:39.038Z,58.47
2018-03-24T08:44:39.098Z,58.4
2018-03-24T08:45:39.046Z,58.4
2018-03-24T08:46:39.050Z,58.48
2018-03-24T08:47:39.030Z,58.41
2018-03-24T08:48:39.048Z,58.42
2018-03-24T08:49:39.040Z,58.48
2018-03-24T08:50:39.022Z,58.4
2018-03-24T08:51:39.073Z,58.41
2018-03-24T08:52:39.037Z,58.5
2018-03-24T08:53:39.030Z,58.41
2018-03-24T08:54:39.045Z,58.41
2018-03-24T08:55:39.039Z,58.5
2018-03-24T08:56:39.088Z,58.41
2018-03-24T08:57:39.040Z,58.42
2018-03-24T08:58:39.035Z,58.48
2018-03-24T08:59:39.030Z,58.41
2018-03-24T09:00:39.046Z,58.42
2018-03-24T09:01:39.046Z,58.5
2018-03-24T09:02:39.040Z,58.42
2018-03-24T09:03:39.047Z,58.44
2018-03-24T09:04:39.030Z,58.5
2018-03-24T09:05:39.027Z,58.43
2018-03-24T09:06:39.037Z,58.45
2018-03-24T09:07:39.023Z,58.5
2018-03-24T09:08:39.024Z,58.44
2018-03-24T09:09:39.018Z,58.44
2018-03-24T09:10:39.034Z,58.51
2018-03-24T09:11:39.010Z,58.44
2018-03-24T09:12:39.030Z,58.4
2018-03-24T09:13:39.058Z,58.47
2018-03-24T09:14:39.055Z,58.43
2018-03-24T09:15:39.033Z,58.44
2018-03-24T09:16:39.036Z,58.52
2018-03-24T09:17:39.021Z,58.45
2018-03-24T09:18:39.041Z,58.45
2018-03-24T09:19:39.029Z,58.52
2018-03-24T09:20:39.074Z,58.46
2018-03-24T09:21:39.004Z,58.48
2018-03-24T09:22:39.025Z,58.53
2018-03-24T09:23:39.042Z,58.48
2018-03-24T09:24:39.061Z,58.52
2018-03-24T09:25:39.034Z,58.53
2018-03-24T09:26:38.929Z,58.45
2018-03-24T09:27:39.035Z,58.45
2018-03-24T09:28:39.026Z,58.51
2018-03-24T09:29:39.047Z,58.45
2018-03-24T09:30:39.036Z,58.44
2018-03-24T09:31:39.024Z,58.45
2018-03-24T09:32:39.016Z,58.43
2018-03-24T09:33:39.029Z,58.42
2018-03-24T09:34:39.028Z,58.51
2018-03-24T09:35:39.013Z,58.45
2018-03-24T09:36:39.001Z,58.46
2018-03-24T09:37:39.033Z,58.54
2018-03-24T09:38:39.018Z,58.46
2018-03-24T09:39:39.028Z,58.46
2018-03-24T09:40:39.050Z,58.54
2018-03-24T09:41:39.013Z,58.44
2018-03-24T09:42:39.023Z,58.42
2018-03-24T09:43:39.024Z,58.5
2018-03-24T09:44:39.012Z,58.44
2018-03-24T09:45:39.018Z,58.44
2018-03-24T09:46:39.006Z,58.5
2018-03-24T09:47:39.016Z,58.44
2018-03-24T09:48:39.000Z,58.44
2018-03-24T09:49:39.009Z,58.52
2018-03-24T09:50:39.018Z,58.44
2018-03-24T09:51:39.074Z,58.44
2018-03-24T09:52:39.037Z,58.52
2018-03-24T09:53:39.000Z,58.47
2018-03-24T09:54:39.026Z,58.45
2018-03-24T09:55:39.004Z,58.53
2018-03-24T09:56:39.012Z,58.47
2018-03-24T09:57:39.030Z,58.45
2018-03-24T09:58:39.013Z,58.54
2018-03-24T09:59:39.029Z,58.46
2018-03-24T10:00:39.009Z,58.46
2018-03-24T10:01:39.051Z,58.53
2018-03-24T10:02:39.002Z,58.48
2018-03-24T10:03:39.014Z,58.46
2018-03-24T10:04:39.020Z,58.54
2018-03-24T10:05:39.008Z,58.45
2018-03-24T10:06:39.023Z,58.46
2018-03-24T10:07:39.005Z,58.53
2018-03-24T10:08:39.032Z,58.46
2018-03-24T10:09:38.981Z,58.47
2018-03-24T10:10:39.016Z,58.54
2018-03-24T10:11:39.011Z,58.47
2018-03-24T10:12:38.993Z,58.47
2018-03-24T10:13:39.018Z,58.54
2018-03-24T10:14:39.002Z,58.47
2018-03-24T10:15:39.013Z,58.47
2018-03-24T10:16:39.058Z,58.55
2018-03-24T10:17:39.042Z,58.48
2018-03-24T10:18:39.019Z,58.48
2018-03-24T10:19:39.002Z,58.55
2018-03-24T10:20:39.004Z,58.5
2018-03-24T10:21:38.977Z,58.5
2018-03-24T10:22:39.035Z,58.55
2018-03-24T10:23:39.004Z,58.5
2018-03-24T10:24:39.014Z,58.5
2018-03-24T10:25:39.013Z,58.55
2018-03-24T10:26:39.027Z,58.5
2018-03-24T10:27:39.026Z,58.5
2018-03-24T10:28:39.019Z,58.57
2018-03-24T10:29:38.997Z,58.5
2018-03-24T10:30:39.002Z,58.51
2018-03-24T10:31:39.094Z,58.58
2018-03-24T10:32:39.029Z,58.52
2018-03-24T10:33:39.003Z,58.52
2018-03-24T10:34:39.000Z,58.58
2018-03-24T10:35:38.995Z,58.52
2018-03-24T10:36:38.995Z,58.52
2018-03-24T10:37:39.014Z,58.59
2018-03-24T10:38:39.004Z,58.52
2018-03-24T10:39:39.024Z,58.53
2018-03-24T10:40:39.030Z,58.59
2018-03-24T10:41:39.040Z,58.53
2018-03-24T10:42:38.997Z,58.54
2018-03-24T10:43:39.018Z,58.62
2018-03-24T10:44:39.001Z,58.54
2018-03-24T10:45:38.989Z,58.53
2018-03-24T10:46:39.004Z,58.6
2018-03-24T10:47:39.018Z,58.54
2018-03-24T10:48:38.994Z,58.54
2018-03-24T10:49:38.997Z,58.63
2018-03-24T10:50:39.052Z,58.55
2018-03-24T10:51:39.032Z,58.55
2018-03-24T10:52:39.147Z,58.57
2018-03-24T10:53:38.988Z,58.54
2018-03-24T10:54:39.003Z,58.57
2018-03-24T10:55:38.995Z,58.64
2018-03-24T10:56:38.996Z,58.59
2018-03-24T10:57:39.018Z,58.59
2018-03-24T10:58:38.992Z,58.66
2018-03-24T10:59:39.014Z,58.63
2018-03-24T11:00:39.007Z,58.6
2018-03-24T11:01:39.005Z,58.69
2018-03-24T11:02:38.992Z,58.59
2018-03-24T11:03:38.999Z,58.6
2018-03-24T11:04:38.985Z,58.67
2018-03-24T11:05:39.008Z,58.63
2018-03-24T11:06:38.971Z,58.63
2018-03-24T11:07:39.019Z,58.7
2018-03-24T11:08:39.024Z,58.63
2018-03-24T11:09:38.999Z,58.62
2018-03-24T11:10:39.009Z,58.7
2018-03-24T11:11:39.017Z,58.64
2018-03-24T11:12:39.056Z,58.64
2018-03-24T11:13:39.051Z,58.72
2018-03-24T11:14:39.010Z,58.66
2018-03-24T11:15:39.011Z,58.66
2018-03-24T11:16:39.007Z,58.73
2018-03-24T11:17:38.997Z,58.69
2018-03-24T11:18:39.009Z,58.67
2018-03-24T11:19:39.015Z,58.76
2018-03-24T11:20:38.992Z,58.7
2018-03-24T11:21:38.996Z,58.7
2018-03-24T11:22:39.005Z,58.76
2018-03-24T11:23:38.998Z,58.7
2018-03-24T11:24:39.016Z,58.7
2018-03-24T11:25:39.009Z,58.77
2018-03-24T11:26:38.994Z,58.7
2018-03-24T11:27:38.997Z,58.71
2018-03-24T11:28:39.008Z,58.77
2018-03-24T11:29:38.993Z,58.74
2018-03-24T11:30:38.991Z,58.74
2018-03-24T11:31:38.983Z,58.79
2018-03-24T11:32:39.003Z,58.74
2018-03-24T11:33:39.005Z,58.73
2018-03-24T11:34:39.026Z,58.81
2018-03-24T11:35:38.985Z,58.75
2018-03-24T11:36:39.000Z,58.74
2018-03-24T11:37:39.000Z,58.83
2018-03-24T11:38:38.982Z,58.77
2018-03-24T11:39:39.001Z,58.77
2018-03-24T11:40:38.991Z,58.83
2018-03-24T11:41:38.985Z,58.76
2018-03-24T11:42:39.014Z,58.76
2018-03-24T11:43:39.002Z,58.83
2018-03-24T11:44:39.009Z,58.77
2018-03-24T11:45:39.001Z,58.76
2018-03-24T11:46:39.022Z,58.83
2018-03-24T11:47:38.980Z,58.76
2018-03-24T11:48:38.998Z,58.74
2018-03-24T11:49:39.005Z,58.82
2018-03-24T11:50:38.973Z,58.72
2018-03-24T11:51:39.020Z,58.72
2018-03-24T11:52:39.012Z,58.79
2018-03-24T11:53:38.997Z,58.72
2018-03-24T11:54:38.994Z,58.71
2018-03-24T11:55:38.977Z,58.81
2018-03-24T11:56:38.971Z,58.72
2018-03-24T11:57:38.971Z,58.73
2018-03-24T11:58:39.050Z,58.78
2018-03-24T11:59:38.995Z,58.71
2018-03-24T12:00:38.968Z,58.7
2018-03-24T12:01:39.015Z,58.77
2018-03-24T12:02:38.964Z,58.7
2018-03-24T12:03:39.065Z,58.7
2018-03-24T12:04:38.999Z,58.76
2018-03-24T12:05:38.965Z,58.67
2018-03-24T12:06:38.962Z,58.67
2018-03-24T12:07:38.981Z,58.74
2018-03-24T12:08:38.948Z,58.65
2018-03-24T12:09:38.969Z,58.64
2018-03-24T12:10:38.983Z,58.74
2018-03-24T12:11:39.003Z,58.65
2018-03-24T12:12:38.998Z,58.64
2018-03-24T12:13:38.980Z,58.72
2018-03-24T12:14:38.982Z,58.65
2018-03-24T12:15:38.989Z,58.66
2018-03-24T12:16:38.988Z,58.75
2018-03-24T12:17:38.989Z,58.7
2018-03-24T12:18:39.001Z,58.7
2018-03-24T12:19:39.011Z,58.76
2018-03-24T12:20:38.962Z,58.7
2018-03-24T12:21:39.103Z,58.7
2018-03-24T12:22:39.000Z,58.77
2018-03-24T12:23:39.020Z,58.69
2018-03-24T12:24:39.014Z,58.67
2018-03-24T12:25:39.053Z,58.77
2018-03-24T12:26:38.996Z,58.69
2018-03-24T12:27:38.953Z,58.67
2018-03-24T12:28:39.000Z,58.75
2018-03-24T12:29:39.049Z,58.69
2018-03-24T12:30:38.986Z,58.67
2018-03-24T12:31:39.054Z,58.75
2018-03-24T12:32:39.168Z,58.66
2018-03-24T12:33:38.968Z,58.65
2018-03-24T12:34:38.961Z,58.75
2018-03-24T12:35:39.028Z,58.66
2018-03-24T12:36:39.035Z,58.66
2018-03-24T12:37:39.058Z,58.74
2018-03-24T12:38:39.059Z,58.65
2018-03-24T12:39:38.964Z,58.65
2018-03-24T12:40:39.004Z,58.72
2018-03-24T12:41:38.955Z,58.65
2018-03-24T12:42:38.973Z,58.64
2018-03-24T12:43:39.063Z,58.72
2018-03-24T12:44:39.063Z,58.65
2018-03-24T12:45:38.988Z,58.65
2018-03-24T12:46:38.954Z,58.73
2018-03-24T12:47:38.950Z,58.64
2018-03-24T12:48:39.050Z,58.64
2018-03-24T12:49:38.949Z,58.72
2018-03-24T12:50:38.984Z,58.64
2018-03-24T12:51:38.984Z,58.63
2018-03-24T12:52:38.987Z,58.7
2018-03-24T12:53:38.969Z,58.64
2018-03-24T12:54:38.969Z,58.65
2018-03-24T12:55:38.966Z,58.71